Time;durP1;ratioP1;P1;durP2;ratioP2;P2;SDS_P1;SDS_P2;PMS_P1;PMS_P2;Temp;Humidity;BMP_temperature;BMP_pressure;BME280_temperature;BME280_humidity;BME280_pressure;Samples;Min_cycle;Max_cycle;Signal;HPM_P1;HPM_P2
2022/04/21 00:00:52;;;;;;;4.82;3.28;;;;;16.40;101345.00;;;;5064094;28;20218;-81
2022/04/21 00:03:20;;;;;;;3.80;3.20;;;;;16.40;101343.00;;;;5066032;28;20289;-81
2022/04/21 00:05:47;;;;;;;5.28;3.50;;;;;16.40;101343.00;;;;5067826;28;20665;-80
2022/04/21 00:08:17;;;;;;;3.60;2.97;;;;;16.40;101334.00;;;;5050234;28;20253;-81
2022/04/21 00:10:44;;;;;;;3.65;3.25;;;;;16.30;101329.00;;;;5055958;28;20199;-81
2022/04/21 00:13:12;;;;;;;4.38;3.65;;;;;16.30;101335.00;;;;5069990;28;20285;-81
2022/04/21 00:15:40;;;;;;;4.57;3.65;;;;;16.30;101334.00;;;;5060237;28;20547;-80
2022/04/21 00:18:07;;;;;;;4.15;3.53;;;;;16.30;101326.00;;;;5050647;28;20219;-81
2022/04/21 00:20:35;;;;;;;4.90;3.38;;;;;16.20;101324.00;;;;5050446;28;20188;-80
2022/04/21 00:25:47;;;;;;;3.35;3.00;;;;;16.20;101318.00;;;;5064244;28;20202;-81
2022/04/21 00:28:14;;;;;;;3.33;2.85;;;;;16.20;101315.00;;;;5063051;28;20203;-81
2022/04/21 00:30:43;;;;;;;3.95;3.55;;;;;16.10;101308.00;;;;5062892;28;20198;-81
2022/04/21 00:33:10;;;;;;;4.25;3.63;;;;;16.10;101309.00;;;;5067685;28;20215;-80
2022/04/21 00:35:38;;;;;;;4.70;3.47;;;;;16.10;101303.00;;;;5051062;28;20661;-80
2022/04/21 00:38:05;;;;;;;5.05;3.55;;;;;16.10;101309.00;;;;5053178;28;20603;-80
2022/04/21 00:40:32;;;;;;;4.53;3.13;;;;;16.00;101316.00;;;;5067034;28;20195;-80
2022/04/21 00:43:00;;;;;;;5.45;3.83;;;;;16.00;101308.00;;;;5069368;28;20226;-80
2022/04/21 00:45:29;;;;;;;3.88;3.30;;;;;16.00;101316.00;;;;5060613;28;20587;-81
2022/04/21 00:47:59;;;;;;;5.18;3.72;;;;;15.90;101304.00;;;;5056789;28;20211;-80
2022/04/21 00:50:30;;;;;;;4.60;3.15;;;;;15.90;101309.00;;;;5067211;28;20198;-81
2022/04/21 00:52:59;;;;;;;5.22;3.78;;;;;15.90;101309.00;;;;5063624;28;20203;-81
2022/04/21 00:55:26;;;;;;;4.13;3.08;;;;;15.90;101314.00;;;;5065654;28;20291;-81
2022/04/21 00:57:55;;;;;;;4.53;3.75;;;;;15.90;101310.00;;;;5066412;28;20305;-81
2022/04/21 01:00:23;;;;;;;4.43;3.75;;;;;15.90;101308.00;;;;5066171;28;20191;-80
2022/04/21 01:02:49;;;;;;;4.40;3.60;;;;;15.80;101312.00;;;;5053257;28;20203;-82
2022/04/21 01:05:26;;;;;;;6.35;3.92;;;;;15.80;101328.00;;;;5059419;28;20257;-81
2022/04/21 01:07:54;;;;;;;4.03;3.25;;;;;15.80;101323.00;;;;5054710;28;20210;-81
2022/04/21 01:10:22;;;;;;;4.93;3.17;;;;;15.70;101318.00;;;;5051782;28;20282;-81
2022/04/21 01:12:50;;;;;;;5.03;3.53;;;;;15.70;101326.00;;;;5063144;28;20290;-81
2022/04/21 01:15:17;;;;;;;4.97;4.00;;;;;15.70;101319.00;;;;5065509;28;20194;-81
2022/04/21 01:17:46;;;;;;;5.40;3.47;;;;;15.60;101321.00;;;;5060548;28;20254;-81
2022/04/21 01:20:19;;;;;;;5.95;3.95;;;;;15.60;101315.00;;;;5050420;28;20260;-81
2022/04/21 01:22:47;;;;;;;4.30;3.13;;;;;15.60;101327.00;;;;5068505;28;20230;-81
2022/04/21 01:25:14;;;;;;;6.38;3.53;;;;;15.60;101321.00;;;;5058198;28;20554;-81
2022/04/21 01:27:42;;;;;;;5.78;3.90;;;;;15.60;101316.00;;;;5058661;28;20202;-80
2022/04/21 01:30:12;;;;;;;3.88;3.22;;;;;15.50;101313.00;;;;5065975;28;20191;-81
2022/04/21 01:32:41;;;;;;;4.65;3.97;;;;;15.50;101315.00;;;;5055653;28;20218;-81
2022/04/21 01:35:09;;;;;;;4.38;3.47;;;;;15.50;101313.00;;;;5050590;28;20199;-81
2022/04/21 01:43:09;;;;;;;4.38;3.33;;;;;15.50;101306.00;;;;5060108;28;20206;-80
2022/04/21 01:45:37;;;;;;;7.20;4.13;;;;;15.40;101309.00;;;;5049435;28;20257;-81
2022/04/21 01:48:04;;;;;;;4.78;3.67;;;;;15.40;101310.00;;;;5048366;28;20200;-81
2022/04/21 01:50:32;;;;;;;4.78;3.60;;;;;15.40;101307.00;;;;5048296;28;20585;-81
2022/04/21 01:53:01;;;;;;;4.70;3.40;;;;;15.40;101306.00;;;;5067046;28;20218;-81
2022/04/21 01:55:29;;;;;;;3.97;3.58;;;;;15.30;101305.00;;;;5061328;28;20195;-81
2022/04/21 01:57:56;;;;;;;6.53;4.20;;;;;15.30;101305.00;;;;5054302;28;20787;-81
2022/04/21 02:00:23;;;;;;;5.82;4.10;;;;;15.30;101299.00;;;;5057522;28;20576;-81
2022/04/21 02:02:51;;;;;;;4.90;3.70;;;;;15.30;101301.00;;;;5066296;28;20202;-81
2022/04/21 02:05:18;;;;;;;4.35;3.35;;;;;15.30;101298.00;;;;5067238;28;20203;-81
2022/04/21 02:07:46;;;;;;;5.22;3.55;;;;;15.30;101293.00;;;;5068379;28;20199;-81
2022/04/21 02:10:16;;;;;;;3.70;3.33;;;;;15.20;101296.00;;;;5068190;28;20202;-80
2022/04/21 02:12:45;;;;;;;4.25;3.78;;;;;15.20;101293.00;;;;5052528;28;20195;-81
2022/04/21 02:15:13;;;;;;;4.05;3.22;;;;;15.20;101291.00;;;;5053965;28;20928;-80
2022/04/21 02:17:40;;;;;;;6.15;4.07;;;;;15.20;101293.00;;;;5065980;28;20284;-81
2022/04/21 02:20:10;;;;;;;4.07;3.55;;;;;15.10;101291.00;;;;5055804;28;20645;-81
2022/04/21 02:22:37;;;;;;;3.85;3.45;;;;;15.10;101289.00;;;;5050952;28;20202;-81
2022/04/21 02:25:06;;;;;;;4.53;3.60;;;;;15.10;101289.00;;;;5051304;28;20685;-81
2022/04/21 02:27:37;;;;;;;6.65;4.70;;;;;15.10;101295.00;;;;5059841;28;20207;-81
2022/04/21 02:30:05;;;;;;;5.03;3.50;;;;;15.10;101288.00;;;;5065482;28;20759;-82
2022/04/21 02:32:32;;;;;;;5.07;3.35;;;;;15.00;101288.00;;;;5055921;28;20215;-81
2022/04/21 02:34:59;;;;;;;5.47;3.63;;;;;15.00;101284.00;;;;5056518;28;20207;-81
2022/04/21 02:37:27;;;;;;;4.63;3.92;;;;;15.00;101286.00;;;;5054985;28;20901;-81
2022/04/21 02:39:54;;;;;;;5.78;4.15;;;;;15.00;101288.00;;;;5053689;28;20249;-81
2022/04/21 02:42:21;;;;;;;3.97;3.50;;;;;14.90;101286.00;;;;5064846;28;20203;-81
2022/04/21 02:44:50;;;;;;;4.28;3.83;;;;;14.90;101291.00;;;;5065623;28;20191;-81
2022/04/21 02:47:18;;;;;;;6.03;3.88;;;;;14.90;101296.00;;;;5065080;28;20195;-80
2022/04/21 02:49:47;;;;;;;5.25;3.80;;;;;14.90;101290.00;;;;5057351;28;20561;-81
2022/04/21 02:52:15;;;;;;;5.13;3.15;;;;;14.90;101286.00;;;;5058935;28;20187;-81
2022/04/21 02:57:43;;;;;;;3.97;3.28;;;;;14.80;101282.00;;;;4950905;28;20242;-81
2022/04/21 03:00:13;;;;;;;6.38;4.65;;;;;14.80;101283.00;;;;4965098;28;20230;-82
2022/04/21 03:02:40;;;;;;;6.50;3.90;;;;;14.80;101288.00;;;;5004673;28;20218;-81
2022/04/21 03:05:09;;;;;;;5.32;3.90;;;;;14.70;101281.00;;;;5048455;28;20195;-81
2022/04/21 03:07:36;;;;;;;5.07;3.90;;;;;14.70;101280.00;;;;5054551;28;20294;-81
2022/04/21 03:10:04;;;;;;;7.80;4.28;;;;;14.70;101281.00;;;;5059024;28;20200;-81
2022/04/21 03:12:31;;;;;;;4.95;4.30;;;;;14.70;101282.00;;;;5064201;28;20207;-81
2022/04/21 03:14:59;;;;;;;4.60;3.35;;;;;14.70;101283.00;;;;5068684;28;20217;-81
2022/04/21 03:17:28;;;;;;;4.35;3.65;;;;;14.70;101284.00;;;;5068494;28;20226;-81
2022/04/21 03:19:58;;;;;;;4.22;3.80;;;;;14.60;101282.00;;;;5063558;28;20665;-81
2022/04/21 03:25:11;;;;;;;7.35;4.05;;;;;14.60;101278.00;;;;5051823;28;20203;-81
2022/04/21 03:27:38;;;;;;;4.82;3.58;;;;;14.60;101279.00;;;;5052862;28;20211;-81
2022/04/21 03:30:08;;;;;;;4.57;3.63;;;;;14.60;101271.00;;;;5067138;28;20211;-81
2022/04/21 03:32:37;;;;;;;4.53;3.13;;;;;14.60;101272.00;;;;5068487;28;20223;-81
2022/04/21 03:35:05;;;;;;;3.75;3.03;;;;;14.60;101278.00;;;;5069119;28;20206;-81
2022/04/21 03:37:33;;;;;;;4.43;3.22;;;;;14.50;101273.00;;;;5068440;28;20234;-81
2022/04/21 03:40:00;;;;;;;6.20;3.95;;;;;14.50;101280.00;;;;5067855;28;20282;-81
2022/04/21 03:42:31;;;;;;;3.97;3.22;;;;;14.50;101275.00;;;;5068300;28;20269;-81
2022/04/21 03:44:59;;;;;;;4.00;3.20;;;;;14.50;101281.00;;;;5061387;28;20198;-81
2022/04/21 03:47:26;;;;;;;4.07;2.95;;;;;14.50;101276.00;;;;5067637;28;20203;-81
2022/04/21 03:49:55;;;;;;;4.03;3.55;;;;;14.40;101275.00;;;;5054351;28;20222;-81
2022/04/21 03:52:22;;;;;;;3.97;3.15;;;;;14.50;101270.00;;;;5058985;28;20246;-80
2022/04/21 03:54:49;;;;;;;5.15;3.63;;;;;14.40;101269.00;;;;5050220;28;21116;-80
2022/04/21 03:57:17;;;;;;;4.78;3.38;;;;;14.40;101275.00;;;;5064968;28;20203;-81
2022/04/21 03:59:44;;;;;;;5.22;3.85;;;;;14.40;101272.00;;;;5060571;28;20222;-81
2022/04/21 04:02:11;;;;;;;4.75;3.00;;;;;14.40;101271.00;;;;5062244;28;20195;-81
2022/04/21 04:04:39;;;;;;;4.07;3.03;;;;;14.40;101274.00;;;;5058088;28;20695;-81
2022/04/21 04:12:38;;;;;;;3.88;3.20;;;;;14.30;101271.00;;;;5066765;28;20205;-81
2022/04/21 04:15:07;;;;;;;4.85;3.47;;;;;14.30;101274.00;;;;5063753;28;20199;-80
2022/04/21 04:17:35;;;;;;;5.28;3.42;;;;;14.30;101273.00;;;;5056585;28;20229;-81
2022/04/21 04:20:03;;;;;;;7.38;3.35;;;;;14.30;101274.00;;;;5054532;28;20199;-81
2022/04/21 04:22:36;;;;;;;4.25;3.42;;;;;14.30;101272.00;;;;5055346;28;20219;-81
2022/04/21 04:25:03;;;;;;;4.90;3.90;;;;;14.30;101274.00;;;;5054623;28;20219;-81
2022/04/21 04:27:30;;;;;;;4.05;3.03;;;;;14.30;101277.00;;;;5063400;28;20199;-81
2022/04/21 04:29:57;;;;;;;4.82;2.85;;;;;14.30;101271.00;;;;5069734;28;20198;-81
2022/04/21 04:32:25;;;;;;;3.97;3.20;;;;;14.30;101279.00;;;;5058936;28;20950;-81
2022/04/21 04:34:52;;;;;;;5.53;3.58;;;;;14.30;101282.00;;;;5063054;28;20195;-81
2022/04/21 04:37:20;;;;;;;4.25;3.38;;;;;14.30;101282.00;;;;5048992;28;21293;-81
2022/04/21 04:39:48;;;;;;;5.20;3.67;;;;;14.30;101281.00;;;;5060129;28;20198;-81
2022/04/21 04:42:20;;;;;;;4.35;3.17;;;;;14.30;101280.00;;;;5055052;28;20199;-81
2022/04/21 04:44:49;;;;;;;3.88;3.47;;;;;14.30;101279.00;;;;5055428;28;20738;-81
2022/04/21 04:47:16;;;;;;;4.90;3.25;;;;;14.30;101281.00;;;;5049636;28;20203;-81
2022/04/21 04:49:43;;;;;;;6.07;3.58;;;;;14.30;101278.00;;;;5059130;28;20209;-81
2022/04/21 04:52:10;;;;;;;3.90;3.10;;;;;14.30;101283.00;;;;5062188;28;20556;-81
2022/04/21 04:54:38;;;;;;;3.92;3.15;;;;;14.30;101279.00;;;;5064173;28;20206;-81
2022/04/21 04:57:06;;;;;;;4.07;2.78;;;;;14.30;101283.00;;;;5059656;28;20210;-81
2022/04/21 04:59:34;;;;;;;3.88;3.28;;;;;14.30;101288.00;;;;5060621;28;20223;-81
2022/04/21 05:02:01;;;;;;;5.03;3.30;;;;;14.30;101280.00;;;;5060927;28;20665;-81
2022/04/21 05:04:29;;;;;;;4.75;3.03;;;;;14.40;101284.00;;;;5053560;28;20287;-81
2022/04/21 05:06:57;;;;;;;5.25;3.67;;;;;14.40;101288.00;;;;5062199;28;20199;-81
2022/04/21 05:09:25;;;;;;;5.68;3.33;;;;;14.40;101286.00;;;;5064300;28;20281;-80
2022/04/21 05:11:54;;;;;;;5.80;3.03;;;;;14.40;101293.00;;;;5060326;28;20202;-80
2022/04/21 05:14:24;;;;;;;7.70;3.45;;;;;14.40;101295.00;;;;5065488;28;20218;-80
2022/04/21 05:16:52;;;;;;;3.67;2.90;;;;;14.40;101293.00;;;;5069736;28;20198;-81
2022/04/21 05:19:21;;;;;;;6.00;3.45;;;;;14.40;101292.00;;;;5070473;28;20226;-81
2022/04/21 05:21:49;;;;;;;6.15;3.38;;;;;14.40;101292.00;;;;5054393;28;20291;-80
2022/04/21 05:24:18;;;;;;;7.43;3.42;;;;;14.40;101292.00;;;;5052717;28;20204;-79
2022/04/21 05:26:46;;;;;;;5.22;3.25;;;;;14.50;101293.00;;;;5057174;28;20285;-78
2022/04/21 05:32:01;;;;;;;3.95;3.45;;;;;14.50;101291.00;;;;5061356;28;20221;-80
2022/04/21 05:34:30;;;;;;;5.70;3.40;;;;;14.50;101287.00;;;;5057391;28;20194;-79
2022/04/21 05:36:59;;;;;;;4.50;3.30;;;;;14.60;101289.00;;;;5053900;28;20705;-78
2022/04/21 05:39:27;;;;;;;6.95;3.45;;;;;14.60;101285.00;;;;5051471;28;20397;-78
2022/04/21 05:41:57;;;;;;;5.82;3.75;;;;;14.60;101286.00;;;;5052913;28;20191;-79
2022/04/21 05:44:25;;;;;;;3.63;2.72;;;;;14.60;101289.00;;;;5061283;28;20618;-78
2022/04/21 05:46:53;;;;;;;4.03;2.97;;;;;14.70;101286.00;;;;5057975;28;20675;-79
2022/04/21 05:49:22;;;;;;;4.15;3.03;;;;;14.70;101286.00;;;;5063271;28;20198;-79
2022/04/21 05:51:50;;;;;;;3.50;3.15;;;;;14.70;101288.00;;;;5062711;28;20202;-78
2022/04/21 05:54:18;;;;;;;3.40;3.10;;;;;14.80;101290.00;;;;5057219;28;20203;-79
2022/04/21 05:56:46;;;;;;;3.75;3.03;;;;;14.90;101290.00;;;;5076260;28;20248;-79
2022/04/21 05:59:13;;;;;;;4.88;3.10;;;;;14.90;101294.00;;;;5061309;28;20219;-78
2022/04/21 06:01:41;;;;;;;3.85;3.13;;;;;14.90;101286.00;;;;5072050;28;20210;-78
2022/04/21 06:04:08;;;;;;;5.05;3.75;;;;;15.00;101289.00;;;;5062593;28;20188;-78
2022/04/21 06:06:38;;;;;;;4.13;3.35;;;;;15.00;101283.00;;;;5079213;28;20221;-78
2022/04/21 06:09:05;;;;;;;3.72;3.10;;;;;15.10;101280.00;;;;5072544;28;20203;-79
2022/04/21 06:11:34;;;;;;;5.10;2.83;;;;;15.10;101281.00;;;;5052030;28;20199;-80
2022/04/21 06:14:02;;;;;;;4.55;3.30;;;;;15.20;101288.00;;;;5060822;28;20195;-80
2022/04/21 06:16:29;;;;;;;3.47;2.83;;;;;15.20;101284.00;;;;5066849;28;20214;-80
2022/04/21 06:18:56;;;;;;;4.03;3.05;;;;;15.30;101289.00;;;;5051146;28;20310;-82
2022/04/21 06:21:23;;;;;;;4.82;3.13;;;;;15.30;101285.00;;;;5053960;28;20202;-79
2022/04/21 06:23:52;;;;;;;5.32;3.30;;;;;15.40;101287.00;;;;5064847;28;20196;-79
2022/04/21 06:26:25;;;;;;;4.13;2.75;;;;;15.40;101289.00;;;;5048354;28;20207;-79
2022/04/21 06:28:54;;;;;;;4.70;2.83;;;;;15.50;101286.00;;;;5063581;28;20222;-79
2022/04/21 06:31:21;;;;;;;7.32;3.28;;;;;15.50;101283.00;;;;5058460;28;20291;-79
2022/04/21 06:33:48;;;;;;;3.38;2.75;;;;;15.60;101285.00;;;;5061376;28;20672;-79
2022/04/21 06:36:16;;;;;;;3.53;3.10;;;;;15.70;101285.00;;;;5067358;28;20222;-79
2022/04/21 06:38:44;;;;;;;4.35;3.50;;;;;15.70;101287.00;;;;5067286;28;20234;-79
2022/04/21 06:41:12;;;;;;;3.25;2.80;;;;;15.80;101284.00;;;;5049472;28;20196;-79
2022/04/21 06:49:09;;;;;;;2.80;2.30;;;;;16.00;101273.00;;;;5060302;28;20214;-79
2022/04/21 06:51:36;;;;;;;3.20;2.80;;;;;16.10;101274.00;;;;5062099;28;20195;-79
2022/04/21 06:54:04;;;;;;;4.72;2.75;;;;;16.20;101271.00;;;;5067448;28;20199;-79
2022/04/21 06:56:32;;;;;;;4.95;3.55;;;;;16.30;101276.00;;;;5066024;28;20666;-79
2022/04/21 06:59:00;;;;;;;4.38;3.08;;;;;16.40;101272.00;;;;5067979;28;20226;-79
2022/04/21 07:01:27;;;;;;;3.90;2.80;;;;;16.40;101279.00;;;;5069291;28;20202;-79
2022/04/21 07:03:54;;;;;;;4.38;3.22;;;;;16.50;101274.00;;;;5053635;28;20202;-79
2022/04/21 07:06:21;;;;;;;3.10;2.75;;;;;16.60;101282.00;;;;5050738;28;20200;-79
2022/04/21 07:08:49;;;;;;;3.33;2.95;;;;;16.70;101283.00;;;;5067519;28;20543;-79
2022/04/21 07:11:20;;;;;;;3.83;3.42;;;;;16.70;101275.00;;;;5065717;28;20295;-79
2022/04/21 07:13:48;;;;;;;3.75;2.85;;;;;16.80;101293.00;;;;5072246;28;20210;-77
2022/04/21 07:16:16;;;;;;;4.47;2.63;;;;;16.80;101286.00;;;;5061674;28;20203;-77
2022/04/21 07:18:43;;;;;;;5.25;2.95;;;;;16.90;101289.00;;;;5060318;28;20222;-79
2022/04/21 07:21:11;;;;;;;6.70;2.90;;;;;17.00;101291.00;;;;5053330;28;20218;-79
2022/04/21 07:23:39;;;;;;;7.10;2.92;;;;;17.10;101296.00;;;;5053874;28;20234;-80
2022/04/21 07:26:06;;;;;;;12.63;3.05;;;;;17.10;101292.00;;;;5056277;28;20202;-80
2022/04/21 07:28:33;;;;;;;3.85;2.72;;;;;17.20;101292.00;;;;5059256;28;20190;-80
2022/04/21 07:31:03;;;;;;;4.75;2.95;;;;;17.20;101295.00;;;;5067373;28;20191;-80
2022/04/21 07:33:30;;;;;;;3.72;2.80;;;;;17.30;101295.00;;;;5067943;28;20276;-80
2022/04/21 07:35:57;;;;;;;3.33;2.50;;;;;17.40;101300.00;;;;5066035;28;20706;-79
2022/04/21 07:38:25;;;;;;;6.55;3.25;;;;;17.50;101295.00;;;;5053804;28;20199;-79
2022/04/21 07:40:53;;;;;;;3.40;2.85;;;;;17.50;101290.00;;;;5055779;28;20229;-79
2022/04/21 07:43:21;;;;;;;4.05;3.10;;;;;17.60;101291.00;;;;5067734;28;20322;-80
2022/04/21 07:45:49;;;;;;;2.83;2.45;;;;;17.70;101294.00;;;;5058158;28;20198;-79
2022/04/21 07:48:18;;;;;;;3.70;2.75;;;;;17.70;101295.00;;;;5062851;28;20665;-80
2022/04/21 07:50:46;;;;;;;3.03;2.60;;;;;17.80;101297.00;;;;5056384;28;20206;-80
2022/04/21 07:53:15;;;;;;;2.60;2.35;;;;;17.90;101292.00;;;;5069556;28;20207;-79
2022/04/21 07:55:44;;;;;;;3.53;2.50;;;;;18.00;101287.00;;;;5050672;28;20286;-80
2022/04/21 07:58:11;;;;;;;3.08;2.42;;;;;18.10;101281.00;;;;5062344;28;20269;-80
2022/04/21 08:00:40;;;;;;;2.63;2.30;;;;;18.10;101293.00;;;;5056982;28;20214;-79
2022/04/21 08:03:09;;;;;;;3.53;2.95;;;;;18.20;101289.00;;;;5050274;28;20666;-80
2022/04/21 08:05:38;;;;;;;4.80;3.00;;;;;18.30;101286.00;;;;5055629;28;20203;-80
2022/04/21 08:08:08;;;;;;;3.75;2.50;;;;;18.40;101286.00;;;;5067235;28;20202;-79
2022/04/21 08:10:35;;;;;;;7.30;3.03;;;;;18.50;101297.00;;;;5065719;28;20290;-80
2022/04/21 08:13:02;;;;;;;6.45;2.78;;;;;18.60;101291.00;;;;5064834;28;20196;-80
2022/04/21 08:15:31;;;;;;;4.03;2.78;;;;;18.70;101304.00;;;;5065418;28;20195;-80
2022/04/21 08:18:00;;;;;;;2.88;2.65;;;;;18.80;101303.00;;;;5057225;28;20199;-80
2022/04/21 08:20:29;;;;;;;4.47;3.15;;;;;18.90;101298.00;;;;5061430;28;20728;-81
2022/04/21 08:22:57;;;;;;;3.38;2.85;;;;;19.00;101302.00;;;;5054059;28;20561;-80
2022/04/21 08:33:39;;;;;;;3.20;2.78;;;;;19.40;101299.00;;;;5054527;28;20203;-81
2022/04/21 08:36:07;;;;;;;3.85;2.40;;;;;19.40;101300.00;;;;5048941;28;20236;-80
2022/04/21 08:38:35;;;;;;;4.55;2.25;;;;;19.50;101294.00;;;;5062211;28;20195;-81
2022/04/21 08:41:07;;;;;;;4.82;2.42;;;;;19.60;101290.00;;;;5061755;28;20285;-80
2022/04/21 08:43:36;;;;;;;3.55;2.50;;;;;19.80;101293.00;;;;5065570;28;20678;-80
2022/04/21 08:46:05;;;;;;;6.35;2.20;;;;;19.90;101300.00;;;;5061054;28;20200;-81
2022/04/21 08:48:34;;;;;;;5.22;2.50;;;;;20.00;101295.00;;;;5049238;28;20191;-82
2022/04/21 08:51:03;;;;;;;3.40;2.20;;;;;20.10;101283.00;;;;5063235;28;20199;-82
2022/04/21 08:53:31;;;;;;;3.42;2.10;;;;;20.20;101297.00;;;;5051948;28;20747;-81
2022/04/21 08:56:00;;;;;;;2.15;1.80;;;;;20.20;101300.00;;;;5053214;28;20211;-81
2022/04/21 08:58:27;;;;;;;1.88;1.67;;;;;20.30;101298.00;;;;5058840;28;20203;-81
2022/04/21 09:00:57;;;;;;;2.92;1.88;;;;;20.40;101293.00;;;;5064749;28;20834;-81
2022/04/21 09:03:24;;;;;;;2.30;1.92;;;;;20.50;101292.00;;;;5058346;28;20558;-81
2022/04/21 09:05:51;;;;;;;1.60;1.48;;;;;20.60;101294.00;;;;5059949;28;20208;-80
2022/04/21 09:08:20;;;;;;;7.10;1.52;;;;;20.60;101284.00;;;;5050314;28;20333;-81
2022/04/21 09:10:48;;;;;;;2.72;1.85;;;;;20.70;101288.00;;;;5048874;28;20203;-81
2022/04/21 09:13:16;;;;;;;2.80;1.52;;;;;20.80;101281.00;;;;5056096;28;20311;-82
2022/04/21 09:15:45;;;;;;;2.22;1.55;;;;;20.90;101277.00;;;;5066432;28;20206;-82
2022/04/21 09:18:14;;;;;;;4.53;1.98;;;;;21.00;101276.00;;;;5065725;28;20199;-82
2022/04/21 09:20:41;;;;;;;2.20;1.90;;;;;21.10;101284.00;;;;5053562;28;20546;-82
2022/04/21 09:23:11;;;;;;;1.52;1.42;;;;;21.10;101279.00;;;;5048752;28;20631;-81
2022/04/21 09:25:47;;;;;;;2.20;1.50;;;;;21.10;101278.00;;;;5048441;28;20283;-81
2022/04/21 09:28:25;;;;;;;1.75;1.35;;;;;21.20;101269.00;;;;5066257;28;20804;-81
2022/04/21 09:30:53;;;;;;;1.70;1.30;;;;;21.30;101279.00;;;;5048684;28;20203;-81
2022/04/21 09:33:28;;;;;;;1.50;1.38;;;;;21.30;101277.00;;;;5066215;28;20222;-80
2022/04/21 09:35:57;;;;;;;2.28;1.30;;;;;21.40;101262.00;;;;5068249;28;20724;-79
2022/04/21 09:38:24;;;;;;;1.75;1.38;;;;;21.50;101266.00;;;;5068706;28;20217;-81
2022/04/21 09:40:52;;;;;;;1.40;1.25;;;;;21.60;101261.00;;;;5053265;28;20234;-79
2022/04/21 09:43:32;;;;;;;1.30;1.00;;;;;21.60;101262.00;;;;5050768;28;20225;-79
2022/04/21 09:46:11;;;;;;;2.97;1.20;;;;;21.70;101254.00;;;;5069086;28;20800;-80
2022/04/21 09:48:39;;;;;;;1.70;1.40;;;;;21.90;101258.00;;;;5068177;28;20572;-81
2022/04/21 09:51:12;;;;;;;2.90;1.60;;;;;22.00;101260.00;;;;5067096;28;20206;-80
2022/04/21 09:53:51;;;;;;;2.22;1.85;;;;;22.00;101251.00;;;;5047509;28;20196;-80
2022/04/21 09:56:18;;;;;;;3.25;2.20;;;;;22.20;101250.00;;;;5048021;28;20688;-80
2022/04/21 09:58:49;;;;;;;1.83;1.50;;;;;22.30;101253.00;;;;5048890;28;20257;-80
2022/04/21 10:01:16;;;;;;;1.85;1.38;;;;;22.40;101255.00;;;;5048624;28;20203;-80
2022/04/21 10:03:44;;;;;;;1.80;1.25;;;;;22.50;101246.00;;;;5048053;28;20215;-80
2022/04/21 10:06:11;;;;;;;4.22;1.13;;;;;22.60;101244.00;;;;5055576;28;20202;-80
2022/04/21 10:08:42;;;;;;;3.00;1.50;;;;;22.70;101246.00;;;;5067414;28;20206;-80
2022/04/21 10:11:10;;;;;;;2.80;1.10;;;;;22.80;101254.00;;;;5066055;28;20195;-81
2022/04/21 10:13:37;;;;;;;1.38;1.00;;;;;22.90;101249.00;;;;5064611;28;20685;-80
2022/04/21 10:16:08;;;;;;;1.45;1.10;;;;;22.90;101236.00;;;;5068087;28;20198;-80
2022/04/21 10:18:36;;;;;;;1.95;1.42;;;;;23.10;101239.00;;;;5067541;28;20285;-80
2022/04/21 10:21:04;;;;;;;1.60;1.05;;;;;23.10;101234.00;;;;5068391;28;20230;-80
2022/04/21 10:23:31;;;;;;;2.65;1.20;;;;;23.20;101237.00;;;;5059979;28;20266;-80
2022/04/21 10:26:01;;;;;;;1.33;1.02;;;;;23.20;101235.00;;;;5066431;28;20660;-80
2022/04/21 10:28:41;;;;;;;1.67;0.90;;;;;23.20;101239.00;;;;5062472;28;20195;-80
2022/04/21 10:31:33;;;;;;;1.40;1.15;;;;;23.20;101238.00;;;;5061209;28;20204;-80
2022/04/21 10:34:03;;;;;;;1.65;1.17;;;;;23.40;101224.00;;;;5067864;28;20198;-80
2022/04/21 10:36:42;;;;;;;2.47;1.52;;;;;23.30;101214.00;;;;5069449;28;20227;-80
2022/04/21 10:39:23;;;;;;;1.80;1.35;;;;;23.40;101220.00;;;;5052189;28;20231;-80
2022/04/21 10:42:08;;;;;;;1.67;1.00;;;;;23.40;101220.00;;;;5059665;28;20198;-80
2022/04/21 10:44:43;;;;;;;1.80;1.10;;;;;23.50;101210.00;;;;5072101;28;20676;-80
2022/04/21 10:48:02;;;;;;;3.15;0.98;;;;;23.60;101204.00;;;;5071973;28;20281;-80
2022/04/21 10:50:32;;;;;;;1.48;0.88;;;;;23.70;101213.00;;;;5056675;28;20222;-79
2022/04/21 10:58:53;;;;;;;2.25;1.30;;;;;23.80;101202.00;;;;5059718;28;20204;-80
2022/04/21 11:01:34;;;;;;;1.70;0.95;;;;;23.80;101203.00;;;;5050201;28;20772;-79
2022/04/21 11:04:11;;;;;;;2.33;1.45;;;;;23.90;101201.00;;;;5050903;28;20203;-81
2022/04/21 11:06:40;;;;;;;2.50;1.20;;;;;24.00;101198.00;;;;5056712;28;20199;-80
2022/04/21 11:09:08;;;;;;;3.08;1.20;;;;;24.00;101199.00;;;;5070571;28;20202;-80
2022/04/21 11:11:46;;;;;;;1.58;1.30;;;;;24.00;101198.00;;;;5060559;28;20661;-80
2022/04/21 11:14:27;;;;;;;2.83;1.50;;;;;24.10;101198.00;;;;5059630;28;20240;-79
2022/04/21 11:16:54;;;;;;;2.50;1.52;;;;;24.20;101200.00;;;;5071307;28;20248;-80
2022/04/21 11:19:34;;;;;;;1.85;1.58;;;;;24.10;101190.00;;;;5069442;28;20202;-80
2022/04/21 11:22:03;;;;;;;1.67;1.58;;;;;24.20;101185.00;;;;5070568;28;20197;-80
2022/04/21 11:25:03;;;;;;;1.88;1.40;;;;;24.20;101192.00;;;;5068889;28;20675;-80
2022/04/21 11:27:32;;;;;;;1.48;1.15;;;;;24.30;101198.00;;;;5069932;28;20297;-79
2022/04/21 11:30:01;;;;;;;1.73;1.30;;;;;24.40;101195.00;;;;5070551;28;20221;-81
2022/04/21 11:32:29;;;;;;;1.42;1.10;;;;;24.40;101187.00;;;;5062692;28;20243;-79
2022/04/21 11:35:03;;;;;;;2.67;1.33;;;;;24.40;101196.00;;;;5050693;28;20282;-80
2022/04/21 11:37:50;;;;;;;2.38;1.50;;;;;24.40;101184.00;;;;5050899;28;20235;-80
2022/04/21 11:40:26;;;;;;;4.55;1.70;;;;;24.50;101188.00;;;;5053911;28;20254;-80
2022/04/21 11:42:55;;;;;;;2.08;1.40;;;;;24.60;101185.00;;;;5070568;28;20603;-80
2022/04/21 11:45:23;;;;;;;2.03;1.40;;;;;24.60;101175.00;;;;5070850;28;20250;-80
2022/04/21 11:47:51;;;;;;;3.42;1.55;;;;;24.70;101171.00;;;;5058617;28;20195;-80
2022/04/21 11:50:25;;;;;;;2.10;1.60;;;;;24.60;101163.00;;;;5070785;28;20202;-80
2022/04/21 11:52:55;;;;;;;2.10;1.90;;;;;24.70;101173.00;;;;5055014;28;20283;-80
2022/04/21 11:55:28;;;;;;;3.17;1.70;;;;;24.70;101166.00;;;;5053675;28;20225;-78
2022/04/21 11:57:56;;;;;;;3.13;1.50;;;;;24.70;101168.00;;;;5050825;28;20203;-78
2022/04/21 12:08:47;;;;;;;3.38;1.70;;;;;24.80;101159.00;;;;5058639;28;20288;-79
2022/04/21 12:11:16;;;;;;;1.80;1.52;;;;;24.90;101148.00;;;;5049928;28;20199;-79
2022/04/21 12:13:44;;;;;;;4.15;2.05;;;;;24.90;101146.00;;;;5051248;28;20200;-79
2022/04/21 12:16:34;;;;;;;2.30;1.20;;;;;24.80;101148.00;;;;5049725;28;20199;-79
2022/04/21 12:19:11;;;;;;;1.80;1.60;;;;;24.90;101142.00;;;;5051204;28;20192;-79
2022/04/21 12:21:40;;;;;;;2.25;1.63;;;;;25.00;101159.00;;;;5054715;28;20226;-79
2022/04/21 12:24:15;;;;;;;1.65;1.55;;;;;25.00;101148.00;;;;5061448;28;20196;-79
2022/04/21 12:26:49;;;;;;;1.40;1.30;;;;;25.10;101140.00;;;;5059345;28;20195;-80
2022/04/21 12:29:16;;;;;;;2.15;1.25;;;;;25.20;101153.00;;;;5061279;28;20534;-79
2022/04/21 12:31:47;;;;;;;1.95;1.40;;;;;25.30;101141.00;;;;5062975;28;20222;-80
2022/04/21 12:34:26;;;;;;;2.00;1.52;;;;;25.30;101138.00;;;;5049990;28;20250;-79
2022/04/21 12:36:57;;;;;;;2.75;1.33;;;;;25.50;101131.00;;;;5049720;28;20509;-79
2022/04/21 12:39:25;;;;;;;1.70;1.20;;;;;25.60;101129.00;;;;5055391;28;20201;-79
2022/04/21 12:41:53;;;;;;;1.45;1.20;;;;;25.60;101124.00;;;;5067906;28;20226;-79
2022/04/21 12:44:23;;;;;;;4.75;1.40;;;;;25.60;101136.00;;;;5069526;28;20203;-79
2022/04/21 12:47:05;;;;;;;3.45;1.27;;;;;25.60;101124.00;;;;5069562;28;20207;-79
2022/04/21 12:49:56;;;;;;;4.05;1.58;;;;;25.60;101111.00;;;;5068902;28;20195;-79
2022/04/21 12:52:36;;;;;;;3.40;1.33;;;;;25.70;101111.00;;;;5054885;28;20192;-79
2022/04/21 12:55:06;;;;;;;2.15;1.35;;;;;25.80;101114.00;;;;5060836;28;20195;-80
2022/04/21 12:57:34;;;;;;;1.85;1.27;;;;;25.80;101114.00;;;;5051597;28;20195;-79
2022/04/21 13:00:03;;;;;;;1.42;1.10;;;;;25.80;101105.00;;;;5049550;28;20697;-79
2022/04/21 13:02:30;;;;;;;1.60;1.17;;;;;25.90;101103.00;;;;5049286;28;20206;-79
2022/04/21 13:04:57;;;;;;;2.03;1.48;;;;;25.90;101101.00;;;;5049511;28;20575;-79
2022/04/21 13:07:25;;;;;;;1.92;1.30;;;;;26.00;101093.00;;;;5049379;28;20192;-79
2022/04/21 13:09:54;;;;;;;2.45;1.40;;;;;26.10;101091.00;;;;5048626;28;20202;-80